Mc Causland, Iowa
Current Conditions -  °F | °C
As of 11:15 PM on Friday 21 Nov 2014 (Local Time) from KCWI Reporting Station
Overcast Overcast  
Wind Chill: 26°   Ceiling: 2100
Heat Index: 34°   Visibility: 10mi
Dew Point: 21°   Wind: 10mph
Humidity: 60%   Direction: 180°S
Pressure: 30.14"   Gusts: NA
Location:  41.7451°N, 90.4447°W
Report Text: KCWI 220515Z AUTO 18009KT 10SM OVC021 01/M06 A3014 RMK AO1
Loading
Personal Weather Stations






























Interactive Weather Map New forecast layout! Learn more

10-Day Weather Forecast

Advertisements
Track Severe Weather on mobile